Time;durP1;ratioP1;P1;durP2;ratioP2;P2;SDS_P1;SDS_P2;PMS_P1;PMS_P2;Temp;Humidity;BMP_temperature;BMP_pressure;BME280_temperature;BME280_humidity;BME280_pressure;Samples;Min_cycle;Max_cycle;Signal;HPM_P1;HPM_P2
2023/12/23 00:00:01;;;;;;;0.95;0.40;;;;;;;0.18;100.00;99667.25;5003389;28;20177;-44
2023/12/23 00:02:26;;;;;;;3.92;0.63;;;;;;;0.15;100.00;99682.22;5003798;28;20713;-45
2023/12/23 00:04:51;;;;;;;1.70;0.45;;;;;;;0.14;100.00;99667.34;5018837;28;20193;-45
2023/12/23 00:07:17;;;;;;;0.85;0.60;;;;;;;0.20;100.00;99659.34;5003804;28;20181;-45
2023/12/23 00:09:42;;;;;;;4.68;1.00;;;;;;;0.27;100.00;99666.25;5001289;28;20188;-43
2023/12/23 00:12:08;;;;;;;2.45;0.80;;;;;;;0.23;100.00;99664.56;5004188;28;20212;-46
2023/12/23 00:14:34;;;;;;;2.72;0.60;;;;;;;0.23;100.00;99659.28;5004910;28;20686;-45
2023/12/23 00:17:00;;;;;;;2.05;0.50;;;;;;;0.21;100.00;99658.44;5003549;28;20667;-45
2023/12/23 00:19:26;;;;;;;4.97;0.70;;;;;;;0.18;100.00;99662.00;5002614;28;20189;-45
2023/12/23 00:21:51;;;;;;;3.58;0.60;;;;;;;0.24;100.00;99653.13;5000614;28;20881;-45
2023/12/23 00:24:17;;;;;;;1.88;0.73;;;;;;;0.15;100.00;99661.16;5002745;28;20743;-45
2023/12/23 00:26:42;;;;;;;1.85;0.57;;;;;;;0.16;100.00;99673.44;5003741;28;20251;-45
2023/12/23 00:29:07;;;;;;;3.83;0.50;;;;;;;0.16;100.00;99671.69;5003277;28;20223;-46
2023/12/23 00:31:33;;;;;;;6.55;1.10;;;;;;;0.14;100.00;99665.56;5003080;28;20184;-46
2023/12/23 00:33:58;;;;;;;3.17;0.77;;;;;;;0.14;100.00;99669.97;5005034;28;20721;-45
2023/12/23 00:36:24;;;;;;;5.63;0.80;;;;;;;0.14;100.00;99675.22;5004910;28;20775;-46
2023/12/23 00:38:49;;;;;;;2.30;0.93;;;;;;;0.23;100.00;99680.34;5009819;28;20284;-45
2023/12/23 00:41:15;;;;;;;4.18;0.88;;;;;;;0.14;100.00;99677.88;4999221;28;21039;-45
2023/12/23 00:43:40;;;;;;;3.95;0.80;;;;;;;0.19;100.00;99671.63;4999435;28;20193;-46
2023/12/23 00:46:09;;;;;;;3.72;0.82;;;;;;;0.20;100.00;99670.75;5003884;28;20185;-46
2023/12/23 00:48:34;;;;;;;4.10;1.05;;;;;;;0.24;100.00;99682.13;5002881;28;20195;-45
2023/12/23 00:51:00;;;;;;;4.22;1.20;;;;;;;0.36;100.00;99679.28;5000709;28;20533;-45
2023/12/23 00:53:26;;;;;;;4.22;0.70;;;;;;;0.34;100.00;99678.44;5003413;28;20207;-45
2023/12/23 00:55:52;;;;;;;3.17;1.33;;;;;;;0.34;100.00;99672.28;5006222;28;20563;-45
2023/12/23 00:58:17;;;;;;;8.15;1.45;;;;;;;0.31;100.00;99672.34;5003580;28;20549;-45
2023/12/23 01:00:43;;;;;;;4.57;1.00;;;;;;;0.37;100.00;99674.88;5001178;28;20184;-45
2023/12/23 01:03:09;;;;;;;5.15;1.10;;;;;;;0.40;100.00;99670.44;5004059;28;20201;-45
2023/12/23 01:05:34;;;;;;;5.22;1.48;;;;;;;0.35;100.00;99682.81;5007999;28;20185;-43
2023/12/23 01:08:00;;;;;;;6.63;1.17;;;;;;;0.31;100.00;99678.50;5001790;28;20677;-44
2023/12/23 01:10:26;;;;;;;9.38;1.05;;;;;;;0.31;100.00;99678.50;5003339;28;20189;-45
2023/12/23 01:12:52;;;;;;;2.65;0.70;;;;;;;0.35;100.00;99668.75;5000603;28;20201;-45
2023/12/23 01:15:18;;;;;;;5.50;0.85;;;;;;;0.43;100.00;99687.97;5004816;28;20216;-46
2023/12/23 01:17:44;;;;;;;5.68;2.00;;;;;;;0.39;100.00;99675.72;5002053;28;20180;-45
2023/12/23 01:20:10;;;;;;;12.75;1.55;;;;;;;0.32;100.00;99663.53;5001787;28;20645;-46
2023/12/23 01:22:37;;;;;;;5.30;1.20;;;;;;;0.29;100.00;99666.25;5002289;28;20211;-46
2023/12/23 01:25:02;;;;;;;11.65;1.83;;;;;;;0.47;100.00;99671.22;5003605;28;20587;-45
2023/12/23 01:27:28;;;;;;;5.45;1.00;;;;;;;0.45;100.00;99667.72;5000039;28;20217;-45
2023/12/23 01:29:54;;;;;;;8.02;1.20;;;;;;;0.39;100.00;99668.72;5015978;28;20303;-46
2023/12/23 01:32:20;;;;;;;8.88;1.08;;;;;;;0.41;100.00;99677.44;4999104;28;20322;-46
2023/12/23 01:34:48;;;;;;;8.90;1.42;;;;;;;0.43;100.00;99681.81;5000487;28;20201;-46
2023/12/23 01:37:13;;;;;;;6.72;1.40;;;;;;;0.48;100.00;99682.63;5002136;28;20203;-43
2023/12/23 01:39:39;;;;;;;7.10;1.40;;;;;;;0.46;100.00;99672.13;5010914;28;20227;-45
2023/12/23 01:42:05;;;;;;;7.25;1.40;;;;;;;0.44;100.00;99673.00;5005966;28;20586;-45
2023/12/23 01:44:30;;;;;;;11.70;1.23;;;;;;;0.47;100.00;99670.34;4988782;28;20177;-46
2023/12/23 01:46:58;;;;;;;5.70;1.23;;;;;;;0.39;100.00;99684.53;4999388;28;20648;-44
2023/12/23 01:49:25;;;;;;;10.70;1.80;;;;;;;0.40;100.00;99685.38;5011453;28;20187;-46
2023/12/23 01:51:53;;;;;;;8.38;1.48;;;;;;;0.40;100.00;99680.13;5000598;28;20270;-45
2023/12/23 01:54:19;;;;;;;9.95;1.50;;;;;;;0.44;100.00;99667.75;5003971;28;20212;-44
2023/12/23 01:56:46;;;;;;;10.20;1.80;;;;;;;0.61;100.00;99677.16;5009709;28;20723;-45
2023/12/23 01:59:12;;;;;;;8.70;1.48;;;;;;;0.71;100.00;99675.22;5007556;28;20452;-46
2023/12/23 02:01:39;;;;;;;9.82;1.77;;;;;;;0.69;100.00;99677.00;4995580;28;20185;-46
2023/12/23 02:04:05;;;;;;;15.18;1.60;;;;;;;0.72;100.00;99673.44;5004133;28;20275;-45
2023/12/23 02:06:30;;;;;;;9.10;1.70;;;;;;;0.79;100.00;99662.78;5002836;28;20265;-46
2023/12/23 02:08:56;;;;;;;7.43;1.60;;;;;;;0.72;100.00;99665.53;4999420;28;20216;-44
2023/12/23 02:11:40;;;;;;;10.75;1.48;;;;;;;0.75;100.00;99663.72;5003015;28;20193;-44
2023/12/23 02:15:00;;;;;;;5.60;1.48;;;;;;;0.74;100.00;99672.50;5017164;28;20204;-45
2023/12/23 02:17:25;;;;;;;10.15;1.48;;;;;;;0.78;100.00;99678.63;4929111;29;20662;-45
2023/12/23 02:19:51;;;;;;;10.30;1.40;;;;;;;0.83;100.00;99674.13;4981049;28;20197;-45
2023/12/23 02:22:16;;;;;;;8.60;1.55;;;;;;;0.91;100.00;99680.13;5001781;28;20209;-43
2023/12/23 02:24:42;;;;;;;6.93;1.58;;;;;;;0.92;100.00;99687.16;5000308;28;20185;-45
2023/12/23 02:27:14;;;;;;;8.60;1.55;;;;;;;1.02;100.00;99691.38;4989729;28;20191;-46
2023/12/23 02:29:41;;;;;;;10.90;1.73;;;;;;;1.01;100.00;99683.50;5000061;28;20280;-45
2023/12/23 02:32:09;;;;;;;5.97;1.50;;;;;;;1.01;100.00;99672.97;5003916;28;20204;-45
2023/12/23 02:34:36;;;;;;;7.47;1.17;;;;;;;1.03;100.00;99684.34;4999131;28;20259;-45
2023/12/23 02:37:02;;;;;;;7.80;1.48;;;;;;;1.02;100.00;99674.69;4996554;28;20220;-44
2023/12/23 02:39:28;;;;;;;9.18;1.70;;;;;;;0.98;100.00;99694.09;4994817;28;20197;-44
2023/12/23 02:41:53;;;;;;;11.50;2.13;;;;;;;1.01;100.00;99681.72;5002670;28;20213;-45
2023/12/23 02:44:19;;;;;;;8.52;1.75;;;;;;;0.97;100.00;99679.19;4999816;28;20254;-46
2023/12/23 02:46:45;;;;;;;8.50;1.35;;;;;;;0.97;100.00;99677.41;5000564;28;20695;-43
2023/12/23 02:49:11;;;;;;;10.77;1.85;;;;;;;1.02;100.00;99675.53;5005440;28;20336;-46
2023/12/23 02:51:36;;;;;;;8.45;1.23;;;;;;;0.91;100.00;99677.50;4996915;28;20219;-46
2023/12/23 02:54:02;;;;;;;5.40;1.30;;;;;;;0.93;100.00;99683.63;5001066;28;20213;-46
2023/12/23 02:56:29;;;;;;;8.40;1.88;;;;;;;0.87;100.00;99677.59;4994221;28;20189;-44
2023/12/23 02:58:55;;;;;;;5.63;1.08;;;;;;;0.92;100.00;99684.53;4999370;28;20189;-45
2023/12/23 03:01:21;;;;;;;6.07;1.27;;;;;;;0.94;100.00;99684.47;5002450;28;20522;-45
2023/12/23 03:03:46;;;;;;;8.63;1.30;;;;;;;0.90;100.00;99685.47;5005813;28;20275;-46
2023/12/23 03:06:14;;;;;;;8.18;1.48;;;;;;;0.91;100.00;99692.47;5004635;28;20588;-45
2023/12/23 03:08:40;;;;;;;9.95;1.63;;;;;;;0.94;100.00;99692.41;4998468;28;20682;-44
2023/12/23 03:11:05;;;;;;;6.80;1.35;;;;;;;0.89;100.00;99688.97;5006472;28;20180;-44
2023/12/23 03:13:30;;;;;;;8.05;1.80;;;;;;;0.94;100.00;99689.75;5002788;28;20809;-44
2023/12/23 03:15:56;;;;;;;10.52;2.05;;;;;;;0.96;100.00;99693.25;5004961;28;20312;-44
2023/12/23 03:18:21;;;;;;;7.88;1.40;;;;;;;0.90;100.00;99693.38;5011057;28;20328;-44
2023/12/23 03:20:47;;;;;;;8.65;1.40;;;;;;;0.89;100.00;99699.53;5006150;28;20173;-44
2023/12/23 03:23:13;;;;;;;10.98;1.70;;;;;;;0.90;100.00;99690.75;5005015;28;20294;-46
2023/12/23 03:25:38;;;;;;;10.98;1.30;;;;;;;0.93;100.00;99694.16;5007692;28;21204;-44
2023/12/23 03:28:04;;;;;;;5.22;1.45;;;;;;;0.89;100.00;99692.47;5004147;28;20184;-45
2023/12/23 03:30:29;;;;;;;8.30;1.50;;;;;;;0.87;100.00;99689.00;5005016;28;20554;-45
2023/12/23 03:32:55;;;;;;;7.00;1.65;;;;;;;0.92;100.00;99692.44;5006469;28;20582;-46
2023/12/23 03:35:20;;;;;;;11.45;1.90;;;;;;;0.87;100.00;99691.63;5002715;28;20232;-46
2023/12/23 03:37:46;;;;;;;7.72;1.48;;;;;;;0.95;100.00;99688.88;5004369;28;20196;-46
2023/12/23 03:40:11;;;;;;;9.18;1.42;;;;;;;0.96;100.00;99682.69;5005116;28;20590;-46
2023/12/23 03:42:38;;;;;;;11.82;2.05;;;;;;;0.97;100.00;99684.44;5004182;28;20201;-44
2023/12/23 03:45:05;;;;;;;10.15;1.60;;;;;;;0.99;100.00;99687.94;5007092;28;20186;-45
2023/12/23 03:47:31;;;;;;;10.00;1.85;;;;;;;1.06;100.00;99680.78;5001916;28;20180;-44
2023/12/23 03:49:56;;;;;;;9.63;1.73;;;;;;;1.02;100.00;99691.38;5004488;28;20554;-44
2023/12/23 03:52:22;;;;;;;10.88;2.05;;;;;;;1.12;100.00;99683.31;5007089;28;20214;-46
2023/12/23 03:54:47;;;;;;;9.48;1.48;;;;;;;1.25;100.00;99687.47;5009828;28;20274;-46
2023/12/23 03:57:12;;;;;;;7.10;1.58;;;;;;;1.27;100.00;99677.75;5008395;28;20192;-43
2023/12/23 03:59:39;;;;;;;10.50;1.50;;;;;;;1.31;100.00;99675.91;5007713;28;20185;-46
2023/12/23 04:02:05;;;;;;;8.35;1.80;;;;;;;1.31;100.00;99681.19;5003453;28;20201;-46
2023/12/23 04:04:32;;;;;;;12.07;2.13;;;;;;;1.40;100.00;99686.28;5001439;28;20260;-45
2023/12/23 04:06:58;;;;;;;8.73;1.70;;;;;;;1.52;100.00;99688.69;5016898;28;20168;-46
2023/12/23 04:09:23;;;;;;;10.00;1.95;;;;;;;1.59;100.00;99681.50;5008257;28;20243;-46
2023/12/23 04:11:49;;;;;;;6.78;1.40;;;;;;;1.65;100.00;99671.69;5001355;28;20629;-45
2023/12/23 04:14:14;;;;;;;11.73;1.35;;;;;;;1.62;100.00;99673.56;5007328;28;20176;-44
2023/12/23 04:16:40;;;;;;;12.93;1.70;;;;;;;1.59;100.00;99663.91;5008711;28;20665;-46
2023/12/23 04:19:05;;;;;;;9.85;1.83;;;;;;;1.63;100.00;99656.78;5007767;28;20165;-46
2023/12/23 04:21:31;;;;;;;8.90;1.48;;;;;;;1.58;100.00;99656.91;5006957;28;20260;-46
2023/12/23 04:23:58;;;;;;;12.45;1.77;;;;;;;1.50;100.00;99656.19;5004434;28;20685;-45
2023/12/23 04:26:25;;;;;;;9.95;1.55;;;;;;;1.55;100.00;99649.06;5009109;28;20210;-46
2023/12/23 04:28:50;;;;;;;11.25;1.80;;;;;;;1.60;100.00;99660.38;5007278;28;20204;-45
2023/12/23 04:31:16;;;;;;;10.07;1.90;;;;;;;1.66;100.00;99664.63;5002826;28;20180;-45
2023/12/23 04:33:41;;;;;;;10.75;1.73;;;;;;;1.61;100.00;99663.88;5006410;28;20250;-46
2023/12/23 04:36:07;;;;;;;8.15;1.52;;;;;;;1.64;100.00;99666.47;5006228;28;20200;-46
2023/12/23 04:38:35;;;;;;;13.55;1.67;;;;;;;1.71;100.00;99661.94;5007795;28;20176;-46
2023/12/23 04:41:00;;;;;;;10.55;1.70;;;;;;;1.65;100.00;99669.06;5005391;28;20698;-44
2023/12/23 04:43:26;;;;;;;9.25;1.50;;;;;;;1.68;100.00;99669.91;5003416;28;20287;-44
2023/12/23 04:45:51;;;;;;;8.02;1.67;;;;;;;1.65;100.00;99669.06;5008570;28;20684;-46
2023/12/23 04:48:17;;;;;;;11.85;1.77;;;;;;;1.65;100.00;99673.47;5002816;28;20243;-45
2023/12/23 04:50:42;;;;;;;9.15;1.90;;;;;;;1.63;100.00;99678.78;4987113;28;20172;-44
2023/12/23 04:53:08;;;;;;;13.02;2.33;;;;;;;1.68;100.00;99688.38;5004239;28;20679;-45
2023/12/23 04:55:33;;;;;;;5.38;1.30;;;;;;;1.65;100.00;99682.25;5003958;28;20289;-44
2023/12/23 04:57:58;;;;;;;9.02;1.48;;;;;;;1.72;100.00;99692.69;5003878;28;20189;-45
2023/12/23 05:00:24;;;;;;;8.55;1.42;;;;;;;1.69;100.00;99704.19;4999152;28;20184;-45
2023/12/23 05:02:49;;;;;;;15.70;1.65;;;;;;;1.73;100.00;99710.28;5007046;28;20208;-45
2023/12/23 05:05:15;;;;;;;6.00;1.35;;;;;;;1.73;100.00;99702.34;5003113;28;20181;-44
2023/12/23 05:07:40;;;;;;;6.72;1.63;;;;;;;1.70;100.00;99702.41;5008205;28;20222;-46
2023/12/23 05:10:06;;;;;;;6.43;1.35;;;;;;;1.72;100.00;99713.81;5011660;23;20256;-40
2023/12/23 05:12:32;;;;;;;9.25;1.42;;;;;;;1.74;100.00;99714.66;5006766;28;20215;-43
2023/12/23 05:14:59;;;;;;;7.90;1.35;;;;;;;1.74;100.00;99709.38;4990995;28;20214;-39
2023/12/23 05:17:24;;;;;;;7.85;1.27;;;;;;;1.80;100.00;99711.91;4997828;28;20184;-40
2023/12/23 05:19:50;;;;;;;7.85;1.58;;;;;;;1.81;100.00;99711.00;5005142;28;20241;-40
2023/12/23 05:22:16;;;;;;;9.93;2.15;;;;;;;1.77;100.00;99719.88;5001869;28;20312;-42
2023/12/23 05:24:42;;;;;;;10.10;1.45;;;;;;;1.75;100.00;99716.38;5005244;28;20287;-40
2023/12/23 05:27:09;;;;;;;8.65;1.67;;;;;;;1.73;100.00;99699.72;5004041;28;20181;-42
2023/12/23 05:29:34;;;;;;;6.28;1.90;;;;;;;1.58;100.00;99693.84;5003929;28;20169;-41
2023/12/23 05:32:03;;;;;;;7.50;1.40;;;;;;;1.50;100.00;99679.94;5006491;28;20208;-41
2023/12/23 05:34:28;;;;;;;6.75;1.50;;;;;;;1.40;100.00;99678.34;5006376;28;20223;-40
2023/12/23 05:36:54;;;;;;;3.70;0.95;;;;;;;1.43;100.00;99678.31;5005278;28;20541;-41
2023/12/23 05:39:19;;;;;;;8.25;1.58;;;;;;;1.26;100.00;99678.63;5002502;28;20184;-41
2023/12/23 05:41:45;;;;;;;7.10;1.08;;;;;;;1.29;100.00;99673.31;5001460;28;20187;-41
2023/12/23 05:44:10;;;;;;;4.07;1.15;;;;;;;1.31;100.00;99678.53;5007855;28;20173;-43
2023/12/23 05:46:35;;;;;;;7.78;1.23;;;;;;;1.35;100.00;99680.22;5004209;28;20185;-43
2023/12/23 05:49:01;;;;;;;7.80;1.10;;;;;;;1.26;100.00;99675.13;5006522;28;20541;-42
2023/12/23 05:51:26;;;;;;;9.35;2.05;;;;;;;1.19;100.00;99675.25;5004641;28;20181;-41
2023/12/23 05:53:52;;;;;;;4.35;1.20;;;;;;;1.20;100.00;99687.56;5006647;28;20311;-40
2023/12/23 05:56:17;;;;;;;7.45;1.27;;;;;;;1.20;100.00;99697.22;5004076;28;20220;-42
2023/12/23 05:58:42;;;;;;;5.55;1.15;;;;;;;1.25;100.00;99703.28;5003827;28;20173;-40
2023/12/23 06:01:09;;;;;;;6.80;1.38;;;;;;;1.30;100.00;99698.78;5007175;28;20184;-41
2023/12/23 06:03:34;;;;;;;7.80;1.02;;;;;;;1.16;100.00;99706.97;5002178;28;20339;-39
2023/12/23 06:06:01;;;;;;;3.33;0.82;;;;;;;1.17;100.00;99706.06;5005956;28;20650;-41
2023/12/23 06:08:26;;;;;;;4.13;1.00;;;;;;;1.13;100.00;99707.00;5004166;28;20723;-41
2023/12/23 06:10:51;;;;;;;4.20;1.15;;;;;;;1.07;100.00;99711.53;5002306;28;20180;-42
2023/12/23 06:13:17;;;;;;;3.08;0.75;;;;;;;1.20;100.00;99718.31;5003359;28;20204;-40
2023/12/23 06:15:42;;;;;;;3.10;1.08;;;;;;;1.10;100.00;99717.63;5005737;28;20224;-42
2023/12/23 06:18:08;;;;;;;6.68;1.17;;;;;;;1.13;100.00;99714.06;5004562;28;20180;-41
2023/12/23 06:20:33;;;;;;;5.07;1.20;;;;;;;1.06;100.00;99726.47;5002890;28;20195;-41
2023/12/23 06:22:59;;;;;;;7.38;0.90;;;;;;;1.09;100.00;99742.25;5001818;28;20270;-41
2023/12/23 06:25:24;;;;;;;6.78;1.00;;;;;;;1.14;100.00;99734.28;5005726;28;20213;-41
2023/12/23 06:27:49;;;;;;;7.88;1.42;;;;;;;1.13;100.00;99704.38;5005302;28;20173;-40
2023/12/23 06:30:15;;;;;;;4.03;1.27;;;;;;;1.04;100.00;99686.06;5006100;28;20192;-41
2023/12/23 06:32:41;;;;;;;4.95;1.30;;;;;;;0.95;100.00;99697.66;5003940;28;20201;-41
2023/12/23 06:35:06;;;;;;;3.03;1.30;;;;;;;0.90;100.00;99690.75;5007814;28;20293;-40
2023/12/23 06:37:32;;;;;;;6.25;0.95;;;;;;;0.81;100.00;99691.75;5008137;28;20208;-43
2023/12/23 06:39:59;;;;;;;4.15;0.88;;;;;;;0.77;100.00;99672.47;5009905;28;20462;-41
2023/12/23 06:42:25;;;;;;;4.55;1.00;;;;;;;0.79;100.00;99670.69;5006990;28;20196;-42
2023/12/23 06:44:51;;;;;;;6.38;1.20;;;;;;;0.92;100.00;99665.19;5005281;28;20622;-45
2023/12/23 06:47:16;;;;;;;6.60;0.88;;;;;;;0.81;100.00;99675.94;5010035;28;20189;-42
2023/12/23 06:49:42;;;;;;;2.58;0.68;;;;;;;0.81;100.00;99673.31;5008999;28;20196;-41
2023/12/23 06:52:07;;;;;;;5.53;0.95;;;;;;;0.78;100.00;99668.94;5008108;28;20196;-42
2023/12/23 06:54:32;;;;;;;5.55;0.88;;;;;;;0.91;100.00;99672.22;5007990;28;20205;-41
2023/12/23 06:56:58;;;;;;;3.33;0.82;;;;;;;0.81;100.00;99671.53;5005788;28;20191;-41
2023/12/23 06:59:23;;;;;;;2.67;0.93;;;;;;;0.80;100.00;99664.50;5007859;28;20212;-41
2023/12/23 07:01:49;;;;;;;8.20;0.90;;;;;;;0.86;100.00;99679.38;5002216;28;20243;-40
2023/12/23 07:04:14;;;;;;;6.78;0.85;;;;;;;0.84;100.00;99689.06;5005847;28;20227;-41
2023/12/23 07:06:40;;;;;;;1.90;0.70;;;;;;;0.87;100.00;99677.59;5008766;28;20180;-40
2023/12/23 07:09:05;;;;;;;4.30;0.98;;;;;;;1.00;100.00;99668.56;5008628;28;20574;-41
2023/12/23 07:11:31;;;;;;;5.05;1.83;;;;;;;0.88;100.00;99682.84;5007712;28;20180;-42
2023/12/23 07:13:56;;;;;;;3.08;0.80;;;;;;;0.96;100.00;99677.41;5010440;28;20211;-41
2023/12/23 07:16:21;;;;;;;2.92;0.88;;;;;;;1.02;100.00;99682.59;5004125;28;20244;-41
2023/12/23 07:18:47;;;;;;;3.97;1.00;;;;;;;0.96;100.00;99686.22;5008498;28;20172;-41
2023/12/23 07:21:12;;;;;;;4.40;0.90;;;;;;;0.95;100.00;99680.97;5011005;28;20199;-42
2023/12/23 07:23:38;;;;;;;3.95;1.33;;;;;;;0.95;100.00;99681.84;5006904;28;20200;-41
2023/12/23 07:26:04;;;;;;;3.20;0.90;;;;;;;0.94;100.00;99679.22;5007948;28;20184;-42
2023/12/23 07:28:30;;;;;;;4.63;1.10;;;;;;;1.04;100.00;99688.72;5009612;28;20176;-41
2023/12/23 07:30:56;;;;;;;5.47;1.20;;;;;;;0.99;100.00;99670.34;5009359;28;20251;-41
2023/12/23 07:33:22;;;;;;;3.10;1.13;;;;;;;1.10;100.00;99698.28;5006643;28;20762;-41
2023/12/23 07:35:47;;;;;;;8.75;1.13;;;;;;;1.11;100.00;99710.56;5008779;28;20571;-41
2023/12/23 07:38:13;;;;;;;4.82;1.02;;;;;;;1.12;100.00;99681.53;5008799;28;20191;-42
2023/12/23 07:40:39;;;;;;;12.88;1.80;;;;;;;1.21;100.00;99699.81;5008873;28;20207;-41
2023/12/23 07:43:05;;;;;;;7.85;1.10;;;;;;;1.20;100.00;99705.13;5003566;28;20224;-44
2023/12/23 07:45:30;;;;;;;13.75;4.88;;;;;;;1.24;100.00;99693.63;4990696;28;20181;-42
2023/12/23 07:47:56;;;;;;;8.20;3.40;;;;;;;1.26;100.00;99676.00;5010025;28;20264;-42
2023/12/23 07:50:22;;;;;;;9.45;3.17;;;;;;;1.29;100.00;99690.88;5004892;28;20263;-41
2023/12/23 07:52:48;;;;;;;16.35;3.15;;;;;;;1.29;100.00;99691.78;5007948;28;20581;-41
2023/12/23 07:55:14;;;;;;;10.35;1.85;;;;;;;1.25;100.00;99698.00;5007838;28;20197;-41
2023/12/23 07:57:42;;;;;;;6.00;1.52;;;;;;;1.30;100.00;99693.50;5008585;28;20177;-43
2023/12/23 08:00:09;;;;;;;7.43;1.30;;;;;;;1.36;100.00;99701.31;5009572;28;20192;-41
2023/12/23 08:02:35;;;;;;;10.32;1.63;;;;;;;1.28;100.00;99689.16;5006538;28;20246;-43
2023/12/23 08:05:02;;;;;;;8.77;1.58;;;;;;;1.31;100.00;99689.09;5006555;28;20181;-42
2023/12/23 08:07:28;;;;;;;5.50;1.65;;;;;;;1.32;100.00;99690.84;5006892;28;20173;-41
2023/12/23 08:09:53;;;;;;;8.18;1.40;;;;;;;1.32;100.00;99691.72;5007797;28;20578;-41
2023/12/23 08:12:18;;;;;;;7.25;1.42;;;;;;;1.29;100.00;99686.50;5006277;28;20678;-41
2023/12/23 08:14:44;;;;;;;8.75;1.33;;;;;;;1.29;100.00;99696.16;5005539;28;20215;-43
2023/12/23 08:17:11;;;;;;;11.07;1.58;;;;;;;1.32;100.00;99694.34;5008060;28;20206;-43
2023/12/23 08:19:37;;;;;;;7.60;1.48;;;;;;;1.35;100.00;99696.06;5007905;28;20188;-42
2023/12/23 08:22:03;;;;;;;7.03;1.40;;;;;;;1.36;100.00;99693.41;5005952;28;20205;-41
2023/12/23 08:24:28;;;;;;;6.97;1.52;;;;;;;1.35;100.00;99689.00;5006711;28;20209;-41
2023/12/23 08:26:54;;;;;;;7.63;1.40;;;;;;;1.39;100.00;99687.19;5006343;28;20169;-42
2023/12/23 08:29:19;;;;;;;11.10;1.95;;;;;;;1.36;100.00;99689.91;5009076;28;20196;-41
2023/12/23 08:31:46;;;;;;;16.75;1.85;;;;;;;1.43;100.00;99680.97;5005987;28;20185;-41
2023/12/23 08:34:12;;;;;;;10.25;1.90;;;;;;;1.41;100.00;99688.91;5005366;28;20692;-42
2023/12/23 08:36:37;;;;;;;10.10;1.52;;;;;;;1.59;100.00;99685.03;5007750;28;20187;-43
2023/12/23 08:39:03;;;;;;;8.27;1.73;;;;;;;1.48;100.00;99687.00;5007776;28;20219;-41
2023/12/23 08:41:28;;;;;;;7.20;1.77;;;;;;;1.50;100.00;99681.72;5007346;28;20169;-41
2023/12/23 08:43:54;;;;;;;8.40;1.60;;;;;;;1.50;100.00;99672.00;5004634;28;20553;-41
2023/12/23 08:46:19;;;;;;;12.60;1.65;;;;;;;1.53;100.00;99684.28;5007985;28;20271;-43
2023/12/23 08:48:44;;;;;;;6.75;1.70;;;;;;;1.59;100.00;99686.78;5004343;28;20173;-41
2023/12/23 08:51:10;;;;;;;6.85;1.95;;;;;;;1.56;100.00;99687.72;5002466;28;20169;-41
2023/12/23 08:53:36;;;;;;;7.32;1.20;;;;;;;1.61;100.00;99696.41;4987172;28;20197;-43
2023/12/23 08:56:02;;;;;;;8.70;1.60;;;;;;;1.64;100.00;99682.31;5007118;28;20322;-43
2023/12/23 08:58:29;;;;;;;6.82;1.30;;;;;;;1.70;100.00;99681.31;5007962;28;20184;-41
2023/12/23 09:00:54;;;;;;;9.63;1.60;;;;;;;1.74;100.00;99697.03;5006607;28;20185;-42
2023/12/23 09:03:19;;;;;;;5.18;1.40;;;;;;;1.85;100.00;99692.41;5000025;28;20212;-41
2023/12/23 09:05:45;;;;;;;8.73;2.22;;;;;;;1.83;100.00;99698.63;5002989;28;20552;-41
2023/12/23 09:08:12;;;;;;;6.53;1.30;;;;;;;1.87;100.00;99697.66;5006882;28;20268;-42
2023/12/23 09:10:37;;;;;;;4.88;1.10;;;;;;;1.83;100.00;99701.28;5007644;28;20268;-41
2023/12/23 09:13:04;;;;;;;7.55;1.35;;;;;;;1.86;100.00;99706.50;5007358;28;20682;-41
2023/12/23 09:15:29;;;;;;;3.70;1.10;;;;;;;1.86;100.00;99698.59;4988625;28;20209;-41
2023/12/23 09:17:55;;;;;;;5.50;1.45;;;;;;;1.90;100.00;99712.56;5004354;28;20642;-41
2023/12/23 09:20:20;;;;;;;4.53;1.13;;;;;;;1.91;100.00;99707.28;5005623;28;20172;-42
2023/12/23 09:22:46;;;;;;;6.45;1.20;;;;;;;1.93;100.00;99705.47;5002056;28;20217;-41
2023/12/23 09:25:11;;;;;;;7.68;1.25;;;;;;;2.01;100.00;99694.72;5005420;28;20248;-41
2023/12/23 09:27:37;;;;;;;3.42;1.20;;;;;;;1.97;100.00;99704.50;5005931;28;20192;-41
2023/12/23 09:30:03;;;;;;;4.85;1.20;;;;;;;1.94;100.00;99706.31;5003444;28;20185;-42
2023/12/23 09:32:29;;;;;;;3.90;1.20;;;;;;;2.04;100.00;99708.75;5007023;28;20288;-41
2023/12/23 09:34:54;;;;;;;4.82;1.45;;;;;;;1.99;100.00;99704.44;5006597;28;20276;-42
2023/12/23 09:37:20;;;;;;;6.80;1.17;;;;;;;1.98;100.00;99713.28;5010208;28;20181;-41
2023/12/23 09:39:46;;;;;;;4.88;1.20;;;;;;;1.96;100.00;99720.38;5007740;28;20231;-41
2023/12/23 09:42:11;;;;;;;7.35;2.03;;;;;;;1.96;100.00;99726.53;5004739;28;20287;-42
2023/12/23 09:44:37;;;;;;;4.40;1.55;;;;;;;2.01;100.00;99713.22;5009555;28;20600;-43
2023/12/23 09:47:04;;;;;;;5.13;1.67;;;;;;;2.02;100.00;99710.53;5004414;28;20234;-43
2023/12/23 09:49:30;;;;;;;4.55;1.02;;;;;;;2.07;100.00;99713.09;5006877;28;20189;-44
2023/12/23 09:51:58;;;;;;;6.53;1.15;;;;;;;2.17;100.00;99711.13;5005882;28;20258;-41
2023/12/23 09:54:27;;;;;;;7.15;2.20;;;;;;;2.04;100.00;99707.88;5008283;28;20599;-40
2023/12/23 09:56:53;;;;;;;6.20;1.50;;;;;;;2.09;100.00;99724.50;5007548;28;20181;-41
2023/12/23 09:59:19;;;;;;;5.72;1.60;;;;;;;2.13;100.00;99718.25;5002132;28;20195;-41
2023/12/23 10:01:44;;;;;;;7.80;1.50;;;;;;;2.06;100.00;99730.72;5000942;28;20544;-41
2023/12/23 10:04:10;;;;;;;6.35;1.30;;;;;;;2.06;100.00;99725.44;5002994;28;20205;-41
2023/12/23 10:06:35;;;;;;;6.38;1.27;;;;;;;2.07;100.00;99734.22;5005266;28;20169;-42
2023/12/23 10:09:01;;;;;;;6.30;1.08;;;;;;;2.18;100.00;99720.78;5009858;28;20619;-41
2023/12/23 10:11:26;;;;;;;7.45;1.40;;;;;;;2.10;100.00;99714.78;5009184;28;20606;-42
2023/12/23 10:13:53;;;;;;;7.15;1.33;;;;;;;2.11;100.00;99717.41;5007750;28;20276;-41
2023/12/23 10:16:18;;;;;;;4.63;1.30;;;;;;;2.26;100.00;99735.56;5007148;28;20753;-41
2023/12/23 10:18:46;;;;;;;9.85;1.35;;;;;;;2.26;100.00;99734.72;5005586;28;20188;-41
2023/12/23 10:21:11;;;;;;;10.38;1.30;;;;;;;2.25;100.00;99739.13;5007765;28;20288;-42
2023/12/23 10:23:37;;;;;;;4.57;1.08;;;;;;;2.20;100.00;99730.41;5006167;28;20202;-42
2023/12/23 10:26:03;;;;;;;9.55;1.30;;;;;;;2.23;100.00;99735.66;5006501;28;20181;-41
2023/12/23 10:28:29;;;;;;;5.22;1.30;;;;;;;2.31;100.00;99745.16;5007865;28;20181;-42
2023/12/23 10:31:01;;;;;;;12.68;1.92;;;;;;;2.31;100.00;99742.53;5008067;28;20188;-40
2023/12/23 10:33:30;;;;;;;10.68;1.60;;;;;;;2.35;100.00;99738.91;5003295;28;20278;-41
2023/12/23 10:35:58;;;;;;;7.63;1.35;;;;;;;2.37;100.00;99732.69;5003876;28;20573;-41
2023/12/23 10:38:26;;;;;;;7.07;1.48;;;;;;;2.47;100.00;99728.06;5008330;28;20184;-41
2023/12/23 10:41:04;;;;;;;7.85;1.92;;;;;;;2.43;100.00;99731.69;5009457;28;20192;-41
2023/12/23 10:43:30;;;;;;;7.28;1.38;;;;;;;2.58;100.00;99734.00;5005839;28;20669;-42
2023/12/23 10:45:57;;;;;;;6.78;1.50;;;;;;;2.56;100.00;99733.16;5003098;28;20180;-42
2023/12/23 10:48:26;;;;;;;11.65;1.55;;;;;;;2.55;100.00;99741.09;5008790;28;20436;-42
2023/12/23 10:50:52;;;;;;;9.13;1.38;;;;;;;2.59;100.00;99734.84;5006891;28;20691;-43
2023/12/23 10:53:18;;;;;;;9.95;1.38;;;;;;;2.69;100.00;99731.09;5008183;28;20698;-43
2023/12/23 10:55:45;;;;;;;12.45;1.58;;;;;;;2.71;100.00;99739.84;5007411;28;20216;-45
2023/12/23 10:58:12;;;;;;;11.93;1.77;;;;;;;2.76;100.00;99735.31;5006039;28;20196;-44
2023/12/23 11:00:38;;;;;;;6.22;1.08;;;;;;;2.77;100.00;99730.91;5008553;28;20196;-45
2023/12/23 11:03:05;;;;;;;7.13;1.55;;;;;;;2.75;100.00;99727.41;4992989;28;20613;-44
2023/12/23 11:05:36;;;;;;;8.35;1.60;;;;;;;2.79;100.00;99722.00;5003511;28;20211;-46
2023/12/23 11:08:06;;;;;;;5.32;1.42;;;;;;;2.83;100.00;99733.41;5006604;28;21186;-43
2023/12/23 11:10:33;;;;;;;3.63;1.00;;;;;;;2.90;100.00;99737.63;5005886;28;20197;-45
2023/12/23 11:13:00;;;;;;;10.13;1.73;;;;;;;2.80;100.00;99731.69;5007905;28;20214;-45
2023/12/23 11:15:25;;;;;;;12.07;1.67;;;;;;;2.88;100.00;99745.59;5005800;28;20203;-44
2023/12/23 11:17:54;;;;;;;8.60;1.58;;;;;;;2.80;100.00;99744.94;5005792;28;20192;-44
2023/12/23 11:20:32;;;;;;;9.27;1.48;;;;;;;2.88;100.00;99737.66;5002729;28;20211;-44
2023/12/23 11:23:00;;;;;;;11.68;1.85;;;;;;;2.83;100.00;99749.28;5000698;28;20209;-45
2023/12/23 11:25:38;;;;;;;4.63;1.67;;;;;;;2.91;100.00;99743.78;5010819;28;20648;-44